sensor_id;sensor_type;location;lat;lon;timestamp;temperature;humidity
21445;DHT22;10883;51.946;20.140;2023-03-23T00:01:08;9.10;99.90
21445;DHT22;10883;51.946;20.140;2023-03-23T00:03:46;9.10;99.90
21445;DHT22;10883;51.946;20.140;2023-03-23T00:06:12;9.20;99.90
21445;DHT22;10883;51.946;20.140;2023-03-23T00:08:44;9.30;99.90
21445;DHT22;10883;51.946;20.140;2023-03-23T00:13:42;9.40;99.90
21445;DHT22;10883;51.946;20.140;2023-03-23T00:16:10;9.40;99.90
21445;DHT22;10883;51.946;20.140;2023-03-23T00:18:47;9.40;99.90
21445;DHT22;10883;51.946;20.140;2023-03-23T00:21:13;9.40;99.90
21445;DHT22;10883;51.946;20.140;2023-03-23T00:23:40;9.40;99.90
21445;DHT22;10883;51.946;20.140;2023-03-23T00:26:06;9.40;99.90
21445;DHT22;10883;51.946;20.140;2023-03-23T00:28:32;9.40;99.90
21445;DHT22;10883;51.946;20.140;2023-03-23T00:31:00;9.40;99.90
21445;DHT22;10883;51.946;20.140;2023-03-23T00:33:28;9.40;99.90
21445;DHT22;10883;51.946;20.140;2023-03-23T00:35:54;9.30;99.90
21445;DHT22;10883;51.946;20.140;2023-03-23T00:38:22;9.30;99.90
21445;DHT22;10883;51.946;20.140;2023-03-23T00:40:48;9.40;99.90
21445;DHT22;10883;51.946;20.140;2023-03-23T00:43:15;9.30;99.90
21445;DHT22;10883;51.946;20.140;2023-03-23T00:45:42;9.30;99.90
21445;DHT22;10883;51.946;20.140;2023-03-23T00:48:11;9.30;99.90
21445;DHT22;10883;51.946;20.140;2023-03-23T00:50:38;9.30;99.90
21445;DHT22;10883;51.946;20.140;2023-03-23T00:53:05;9.20;99.90
21445;DHT22;10883;51.946;20.140;2023-03-23T00:55:30;9.20;99.90
21445;DHT22;10883;51.946;20.140;2023-03-23T00:57:56;9.20;99.90
21445;DHT22;10883;51.946;20.140;2023-03-23T01:00:22;9.20;99.90
21445;DHT22;10883;51.946;20.140;2023-03-23T01:02:49;9.20;99.90
21445;DHT22;10883;51.946;20.140;2023-03-23T01:05:21;9.20;99.90
21445;DHT22;10883;51.946;20.140;2023-03-23T01:07:47;9.30;99.90
21445;DHT22;10883;51.946;20.140;2023-03-23T01:10:14;9.30;99.90
21445;DHT22;10883;51.946;20.140;2023-03-23T01:12:44;9.40;99.90
21445;DHT22;10883;51.946;20.140;2023-03-23T01:15:16;9.50;99.90
21445;DHT22;10883;51.946;20.140;2023-03-23T01:17:43;9.50;99.90
21445;DHT22;10883;51.946;20.140;2023-03-23T01:20:10;9.60;99.90
21445;DHT22;10883;51.946;20.140;2023-03-23T01:22:38;9.60;99.90
21445;DHT22;10883;51.946;20.140;2023-03-23T01:25:05;9.60;99.90
21445;DHT22;10883;51.946;20.140;2023-03-23T01:27:31;9.60;99.90
21445;DHT22;10883;51.946;20.140;2023-03-23T01:29:57;9.60;99.90
21445;DHT22;10883;51.946;20.140;2023-03-23T01:32:24;9.60;99.90
21445;DHT22;10883;51.946;20.140;2023-03-23T01:34:49;9.60;99.90
21445;DHT22;10883;51.946;20.140;2023-03-23T01:37:15;9.60;99.90
21445;DHT22;10883;51.946;20.140;2023-03-23T01:39:42;9.50;99.90
21445;DHT22;10883;51.946;20.140;2023-03-23T01:42:11;9.50;99.90
21445;DHT22;10883;51.946;20.140;2023-03-23T01:47:03;9.50;99.90
21445;DHT22;10883;51.946;20.140;2023-03-23T01:49:35;9.50;99.90
21445;DHT22;10883;51.946;20.140;2023-03-23T01:52:05;9.50;99.90
21445;DHT22;10883;51.946;20.140;2023-03-23T01:54:35;9.50;99.90
21445;DHT22;10883;51.946;20.140;2023-03-23T01:57:28;9.50;99.90
21445;DHT22;10883;51.946;20.140;2023-03-23T01:59:57;9.50;99.90
21445;DHT22;10883;51.946;20.140;2023-03-23T02:02:24;9.50;99.90
21445;DHT22;10883;51.946;20.140;2023-03-23T02:04:54;9.50;99.90
21445;DHT22;10883;51.946;20.140;2023-03-23T02:07:22;9.50;99.90
21445;DHT22;10883;51.946;20.140;2023-03-23T02:09:50;9.50;99.90
21445;DHT22;10883;51.946;20.140;2023-03-23T02:12:16;9.50;99.90
21445;DHT22;10883;51.946;20.140;2023-03-23T02:14:42;9.50;99.90
21445;DHT22;10883;51.946;20.140;2023-03-23T02:17:18;9.50;99.90
21445;DHT22;10883;51.946;20.140;2023-03-23T02:23:14;9.50;99.90
21445;DHT22;10883;51.946;20.140;2023-03-23T02:31:42;9.50;99.90
21445;DHT22;10883;51.946;20.140;2023-03-23T02:36:57;9.50;99.90
21445;DHT22;10883;51.946;20.140;2023-03-23T02:39:40;9.50;99.90
21445;DHT22;10883;51.946;20.140;2023-03-23T02:42:11;9.40;99.90
21445;DHT22;10883;51.946;20.140;2023-03-23T02:44:41;9.30;99.90
21445;DHT22;10883;51.946;20.140;2023-03-23T02:47:13;9.30;99.90
21445;DHT22;10883;51.946;20.140;2023-03-23T02:49:41;9.30;99.90
21445;DHT22;10883;51.946;20.140;2023-03-23T02:52:11;9.30;99.90
21445;DHT22;10883;51.946;20.140;2023-03-23T02:54:42;9.20;99.90
21445;DHT22;10883;51.946;20.140;2023-03-23T02:57:10;9.10;99.90
21445;DHT22;10883;51.946;20.140;2023-03-23T02:59:36;9.10;99.90
21445;DHT22;10883;51.946;20.140;2023-03-23T03:02:12;9.00;99.90
21445;DHT22;10883;51.946;20.140;2023-03-23T03:04:40;8.90;99.90
21445;DHT22;10883;51.946;20.140;2023-03-23T03:07:17;8.80;99.90
21445;DHT22;10883;51.946;20.140;2023-03-23T03:12:51;8.70;99.90
21445;DHT22;10883;51.946;20.140;2023-03-23T03:18:32;8.70;99.90
21445;DHT22;10883;51.946;20.140;2023-03-23T03:21:07;8.60;99.90
21445;DHT22;10883;51.946;20.140;2023-03-23T03:23:37;8.60;99.90
21445;DHT22;10883;51.946;20.140;2023-03-23T03:26:04;8.60;99.90
21445;DHT22;10883;51.946;20.140;2023-03-23T03:28:32;8.50;99.90
21445;DHT22;10883;51.946;20.140;2023-03-23T03:31:01;8.50;99.90
21445;DHT22;10883;51.946;20.140;2023-03-23T03:33:28;8.50;99.90
21445;DHT22;10883;51.946;20.140;2023-03-23T03:35:58;8.40;99.90
21445;DHT22;10883;51.946;20.140;2023-03-23T03:38:25;8.40;99.90
21445;DHT22;10883;51.946;20.140;2023-03-23T03:40:51;8.40;99.90
21445;DHT22;10883;51.946;20.140;2023-03-23T03:43:17;8.40;99.90
21445;DHT22;10883;51.946;20.140;2023-03-23T03:45:43;8.30;99.90
21445;DHT22;10883;51.946;20.140;2023-03-23T03:48:10;8.40;99.90
21445;DHT22;10883;51.946;20.140;2023-03-23T03:50:36;8.40;99.90
21445;DHT22;10883;51.946;20.140;2023-03-23T03:53:02;8.40;99.90
21445;DHT22;10883;51.946;20.140;2023-03-23T03:55:28;8.40;99.90
21445;DHT22;10883;51.946;20.140;2023-03-23T03:57:57;8.40;99.90
21445;DHT22;10883;51.946;20.140;2023-03-23T04:00:23;8.40;99.90
21445;DHT22;10883;51.946;20.140;2023-03-23T04:02:50;8.40;99.90
21445;DHT22;10883;51.946;20.140;2023-03-23T04:05:21;8.50;99.90
21445;DHT22;10883;51.946;20.140;2023-03-23T04:07:48;8.50;99.90
21445;DHT22;10883;51.946;20.140;2023-03-23T04:10:19;8.50;99.90
21445;DHT22;10883;51.946;20.140;2023-03-23T04:12:48;8.50;99.90
21445;DHT22;10883;51.946;20.140;2023-03-23T04:15:14;8.50;99.90
21445;DHT22;10883;51.946;20.140;2023-03-23T04:17:39;8.50;99.90
21445;DHT22;10883;51.946;20.140;2023-03-23T04:20:06;8.50;99.90
21445;DHT22;10883;51.946;20.140;2023-03-23T04:22:41;8.50;99.90
21445;DHT22;10883;51.946;20.140;2023-03-23T04:25:10;8.50;99.90
21445;DHT22;10883;51.946;20.140;2023-03-23T04:27:38;8.60;99.90
21445;DHT22;10883;51.946;20.140;2023-03-23T04:30:05;8.50;99.90
21445;DHT22;10883;51.946;20.140;2023-03-23T04:32:31;8.60;99.90
21445;DHT22;10883;51.946;20.140;2023-03-23T04:34:58;8.60;99.90
21445;DHT22;10883;51.946;20.140;2023-03-23T04:37:27;8.60;99.90
21445;DHT22;10883;51.946;20.140;2023-03-23T04:40:00;8.60;99.90
21445;DHT22;10883;51.946;20.140;2023-03-23T04:42:30;8.60;99.90
21445;DHT22;10883;51.946;20.140;2023-03-23T04:44:57;8.70;99.90
21445;DHT22;10883;51.946;20.140;2023-03-23T04:47:24;8.70;99.90
21445;DHT22;10883;51.946;20.140;2023-03-23T04:49:56;8.70;99.90
21445;DHT22;10883;51.946;20.140;2023-03-23T04:52:26;8.70;99.90
21445;DHT22;10883;51.946;20.140;2023-03-23T04:54:54;8.70;99.90
21445;DHT22;10883;51.946;20.140;2023-03-23T04:57:22;8.80;99.90
21445;DHT22;10883;51.946;20.140;2023-03-23T04:59:48;8.80;99.90
21445;DHT22;10883;51.946;20.140;2023-03-23T05:02:14;8.90;99.90
21445;DHT22;10883;51.946;20.140;2023-03-23T05:04:40;8.90;99.90
21445;DHT22;10883;51.946;20.140;2023-03-23T05:07:10;8.90;99.90
21445;DHT22;10883;51.946;20.140;2023-03-23T05:09:36;9.00;99.90
21445;DHT22;10883;51.946;20.140;2023-03-23T05:12:06;9.00;99.90
21445;DHT22;10883;51.946;20.140;2023-03-23T05:14:32;9.10;99.90
21445;DHT22;10883;51.946;20.140;2023-03-23T05:16:58;9.10;99.90
21445;DHT22;10883;51.946;20.140;2023-03-23T05:19:24;9.20;99.90
21445;DHT22;10883;51.946;20.140;2023-03-23T05:21:50;9.30;99.90
21445;DHT22;10883;51.946;20.140;2023-03-23T05:24:15;9.30;99.90
21445;DHT22;10883;51.946;20.140;2023-03-23T05:26:41;9.40;99.90
21445;DHT22;10883;51.946;20.140;2023-03-23T05:29:07;9.50;99.90
21445;DHT22;10883;51.946;20.140;2023-03-23T05:31:33;9.60;99.90
21445;DHT22;10883;51.946;20.140;2023-03-23T05:33:59;9.70;99.90
21445;DHT22;10883;51.946;20.140;2023-03-23T05:36:26;9.80;99.90
21445;DHT22;10883;51.946;20.140;2023-03-23T05:38:51;9.80;99.90
21445;DHT22;10883;51.946;20.140;2023-03-23T05:41:19;9.90;99.90
21445;DHT22;10883;51.946;20.140;2023-03-23T05:43:46;10.10;99.90
21445;DHT22;10883;51.946;20.140;2023-03-23T05:46:13;10.20;99.90
21445;DHT22;10883;51.946;20.140;2023-03-23T05:48:38;10.30;99.90
21445;DHT22;10883;51.946;20.140;2023-03-23T05:51:04;10.40;99.90
21445;DHT22;10883;51.946;20.140;2023-03-23T05:53:30;10.40;99.90
21445;DHT22;10883;51.946;20.140;2023-03-23T05:56:00;10.60;99.90
21445;DHT22;10883;51.946;20.140;2023-03-23T05:58:26;10.50;99.90
21445;DHT22;10883;51.946;20.140;2023-03-23T06:00:52;10.60;99.90
21445;DHT22;10883;51.946;20.140;2023-03-23T06:03:18;10.60;99.90
21445;DHT22;10883;51.946;20.140;2023-03-23T06:05:44;10.70;99.90
21445;DHT22;10883;51.946;20.140;2023-03-23T06:08:10;10.70;99.90
21445;DHT22;10883;51.946;20.140;2023-03-23T06:10:37;10.70;99.90
21445;DHT22;10883;51.946;20.140;2023-03-23T06:13:04;10.80;99.90
21445;DHT22;10883;51.946;20.140;2023-03-23T06:15:30;10.80;99.90
21445;DHT22;10883;51.946;20.140;2023-03-23T06:18:04;10.80;99.90
21445;DHT22;10883;51.946;20.140;2023-03-23T06:20:31;10.90;99.90
21445;DHT22;10883;51.946;20.140;2023-03-23T06:22:58;10.90;99.90
21445;DHT22;10883;51.946;20.140;2023-03-23T06:25:24;10.70;99.90
21445;DHT22;10883;51.946;20.140;2023-03-23T06:27:50;10.80;99.90
21445;DHT22;10883;51.946;20.140;2023-03-23T06:30:17;10.80;99.90
21445;DHT22;10883;51.946;20.140;2023-03-23T06:32:43;10.80;99.90
21445;DHT22;10883;51.946;20.140;2023-03-23T06:35:12;10.80;99.90
21445;DHT22;10883;51.946;20.140;2023-03-23T06:37:38;10.80;99.90
21445;DHT22;10883;51.946;20.140;2023-03-23T06:40:05;10.90;99.90
21445;DHT22;10883;51.946;20.140;2023-03-23T06:42:35;10.90;99.90
21445;DHT22;10883;51.946;20.140;2023-03-23T06:45:02;10.90;99.90
21445;DHT22;10883;51.946;20.140;2023-03-23T06:47:29;11.00;99.90
21445;DHT22;10883;51.946;20.140;2023-03-23T06:49:58;11.10;99.90
21445;DHT22;10883;51.946;20.140;2023-03-23T06:52:25;11.20;99.90
21445;DHT22;10883;51.946;20.140;2023-03-23T06:54:51;11.30;99.90
21445;DHT22;10883;51.946;20.140;2023-03-23T06:57:18;11.40;99.90
21445;DHT22;10883;51.946;20.140;2023-03-23T06:59:44;11.50;99.90
21445;DHT22;10883;51.946;20.140;2023-03-23T07:02:14;11.50;99.90
21445;DHT22;10883;51.946;20.140;2023-03-23T07:04:40;11.60;99.90
21445;DHT22;10883;51.946;20.140;2023-03-23T07:07:09;11.70;99.90
21445;DHT22;10883;51.946;20.140;2023-03-23T07:09:36;11.80;99.90
21445;DHT22;10883;51.946;20.140;2023-03-23T07:12:02;11.90;99.90
21445;DHT22;10883;51.946;20.140;2023-03-23T07:14:28;12.00;99.90
21445;DHT22;10883;51.946;20.140;2023-03-23T07:16:54;12.00;99.90
21445;DHT22;10883;51.946;20.140;2023-03-23T07:19:21;12.00;99.90
21445;DHT22;10883;51.946;20.140;2023-03-23T07:21:47;12.10;99.90
21445;DHT22;10883;51.946;20.140;2023-03-23T07:24:13;12.10;99.90
21445;DHT22;10883;51.946;20.140;2023-03-23T07:26:42;12.10;99.90
21445;DHT22;10883;51.946;20.140;2023-03-23T07:29:08;12.20;99.90
21445;DHT22;10883;51.946;20.140;2023-03-23T07:31:35;12.20;99.90
21445;DHT22;10883;51.946;20.140;2023-03-23T07:34:02;12.30;99.90
21445;DHT22;10883;51.946;20.140;2023-03-23T07:36:29;12.40;99.90
21445;DHT22;10883;51.946;20.140;2023-03-23T07:38:55;12.40;99.90
21445;DHT22;10883;51.946;20.140;2023-03-23T07:41:22;12.60;99.90
21445;DHT22;10883;51.946;20.140;2023-03-23T07:43:48;12.80;99.90
21445;DHT22;10883;51.946;20.140;2023-03-23T07:46:13;12.90;99.90
21445;DHT22;10883;51.946;20.140;2023-03-23T07:48:39;13.10;99.90
21445;DHT22;10883;51.946;20.140;2023-03-23T07:51:06;13.30;99.90
21445;DHT22;10883;51.946;20.140;2023-03-23T07:53:33;13.50;99.90
21445;DHT22;10883;51.946;20.140;2023-03-23T07:55:59;13.50;99.90
21445;DHT22;10883;51.946;20.140;2023-03-23T07:58:24;13.60;99.90
21445;DHT22;10883;51.946;20.140;2023-03-23T08:00:52;13.80;99.90
21445;DHT22;10883;51.946;20.140;2023-03-23T08:03:18;13.80;99.90
21445;DHT22;10883;51.946;20.140;2023-03-23T08:05:44;14.10;99.90
21445;DHT22;10883;51.946;20.140;2023-03-23T08:08:10;14.10;99.90
21445;DHT22;10883;51.946;20.140;2023-03-23T08:10:36;14.30;99.90
21445;DHT22;10883;51.946;20.140;2023-03-23T08:13:02;14.40;99.90
21445;DHT22;10883;51.946;20.140;2023-03-23T08:15:29;14.70;99.90
21445;DHT22;10883;51.946;20.140;2023-03-23T08:17:55;15.20;99.90
21445;DHT22;10883;51.946;20.140;2023-03-23T08:20:21;15.60;99.90
21445;DHT22;10883;51.946;20.140;2023-03-23T08:22:55;15.80;99.90
21445;DHT22;10883;51.946;20.140;2023-03-23T08:25:21;15.80;99.90
21445;DHT22;10883;51.946;20.140;2023-03-23T08:27:47;16.10;99.90
21445;DHT22;10883;51.946;20.140;2023-03-23T08:30:18;16.10;99.90
21445;DHT22;10883;51.946;20.140;2023-03-23T08:32:48;16.30;99.90
21445;DHT22;10883;51.946;20.140;2023-03-23T08:35:15;16.30;99.90
21445;DHT22;10883;51.946;20.140;2023-03-23T08:37:41;16.30;99.90
21445;DHT22;10883;51.946;20.140;2023-03-23T08:40:09;16.10;99.90
21445;DHT22;10883;51.946;20.140;2023-03-23T08:42:40;15.80;99.90
21445;DHT22;10883;51.946;20.140;2023-03-23T08:45:08;15.80;99.90
21445;DHT22;10883;51.946;20.140;2023-03-23T08:47:35;15.80;99.90
21445;DHT22;10883;51.946;20.140;2023-03-23T08:50:02;15.60;99.90
21445;DHT22;10883;51.946;20.140;2023-03-23T08:52:28;15.60;99.90
21445;DHT22;10883;51.946;20.140;2023-03-23T08:54:55;15.60;99.90
21445;DHT22;10883;51.946;20.140;2023-03-23T08:57:23;15.70;99.90
21445;DHT22;10883;51.946;20.140;2023-03-23T08:59:49;15.80;99.90
21445;DHT22;10883;51.946;20.140;2023-03-23T09:02:15;16.10;99.90
21445;DHT22;10883;51.946;20.140;2023-03-23T09:04:42;16.20;99.90
21445;DHT22;10883;51.946;20.140;2023-03-23T09:07:11;16.30;99.90
21445;DHT22;10883;51.946;20.140;2023-03-23T09:09:38;16.40;99.90
21445;DHT22;10883;51.946;20.140;2023-03-23T09:12:08;16.60;99.90
21445;DHT22;10883;51.946;20.140;2023-03-23T09:14:35;16.80;99.90
21445;DHT22;10883;51.946;20.140;2023-03-23T09:17:02;16.90;99.90
21445;DHT22;10883;51.946;20.140;2023-03-23T09:19:29;17.00;99.90
21445;DHT22;10883;51.946;20.140;2023-03-23T09:21:54;17.20;99.90
21445;DHT22;10883;51.946;20.140;2023-03-23T09:24:20;17.30;99.90
21445;DHT22;10883;51.946;20.140;2023-03-23T09:26:46;17.30;99.90
21445;DHT22;10883;51.946;20.140;2023-03-23T09:29:13;17.50;99.90
21445;DHT22;10883;51.946;20.140;2023-03-23T09:31:39;17.70;99.90
21445;DHT22;10883;51.946;20.140;2023-03-23T09:34:08;17.50;99.90
21445;DHT22;10883;51.946;20.140;2023-03-23T09:47:21;21.70;96.90
21445;DHT22;10883;51.946;20.140;2023-03-23T09:50:04;21.80;95.20
21445;DHT22;10883;51.946;20.140;2023-03-23T09:52:43;22.00;93.30
21445;DHT22;10883;51.946;20.140;2023-03-23T09:55:16;22.10;93.40
21445;DHT22;10883;51.946;20.140;2023-03-23T10:00:47;22.10;91.90
21445;DHT22;10883;51.946;20.140;2023-03-23T10:03:23;21.40;92.80
21445;DHT22;10883;51.946;20.140;2023-03-23T10:05:52;21.30;91.80
21445;DHT22;10883;51.946;20.140;2023-03-23T10:08:26;21.40;91.60
21445;DHT22;10883;51.946;20.140;2023-03-23T10:10:58;22.10;90.70
21445;DHT22;10883;51.946;20.140;2023-03-23T10:16:07;23.80;85.40
21445;DHT22;10883;51.946;20.140;2023-03-23T10:18:41;25.00;81.10
21445;DHT22;10883;51.946;20.140;2023-03-23T10:21:15;25.30;79.00
21445;DHT22;10883;51.946;20.140;2023-03-23T10:24:01;25.60;77.00
21445;DHT22;10883;51.946;20.140;2023-03-23T10:29:28;26.40;75.40
21445;DHT22;10883;51.946;20.140;2023-03-23T10:32:17;26.70;72.30
21445;DHT22;10883;51.946;20.140;2023-03-23T10:34:54;25.50;74.20
21445;DHT22;10883;51.946;20.140;2023-03-23T10:37:39;25.50;74.80
21445;DHT22;10883;51.946;20.140;2023-03-23T10:40:15;25.60;72.60
21445;DHT22;10883;51.946;20.140;2023-03-23T10:42:41;25.00;73.40
21445;DHT22;10883;51.946;20.140;2023-03-23T10:45:20;23.60;77.10
21445;DHT22;10883;51.946;20.140;2023-03-23T10:48:09;23.90;78.00
21445;DHT22;10883;51.946;20.140;2023-03-23T10:50:38;25.00;74.90
21445;DHT22;10883;51.946;20.140;2023-03-23T10:53:16;25.10;73.70
21445;DHT22;10883;51.946;20.140;2023-03-23T10:55:42;27.10;71.10
21445;DHT22;10883;51.946;20.140;2023-03-23T10:58:23;27.70;68.80
21445;DHT22;10883;51.946;20.140;2023-03-23T11:00:50;27.70;69.00
21445;DHT22;10883;51.946;20.140;2023-03-23T11:05:50;28.10;66.50
21445;DHT22;10883;51.946;20.140;2023-03-23T11:08:25;27.80;66.00
21445;DHT22;10883;51.946;20.140;2023-03-23T11:10:54;28.00;66.30
21445;DHT22;10883;51.946;20.140;2023-03-23T11:13:23;28.70;65.60
21445;DHT22;10883;51.946;20.140;2023-03-23T11:15:52;30.10;64.10
21445;DHT22;10883;51.946;20.140;2023-03-23T11:18:43;29.10;64.70
21445;DHT22;10883;51.946;20.140;2023-03-23T11:21:11;29.30;64.10
21445;DHT22;10883;51.946;20.140;2023-03-23T11:23:40;30.60;61.30
21445;DHT22;10883;51.946;20.140;2023-03-23T11:26:24;29.50;63.10
21445;DHT22;10883;51.946;20.140;2023-03-23T11:29:16;29.00;63.60
21445;DHT22;10883;51.946;20.140;2023-03-23T11:32:13;27.70;63.60
21445;DHT22;10883;51.946;20.140;2023-03-23T11:34:41;26.30;68.60
21445;DHT22;10883;51.946;20.140;2023-03-23T11:39:53;27.00;68.60
21445;DHT22;10883;51.946;20.140;2023-03-23T11:42:22;25.70;68.90
21445;DHT22;10883;51.946;20.140;2023-03-23T11:44:48;25.00;70.30
21445;DHT22;10883;51.946;20.140;2023-03-23T11:47:30;24.20;72.50
21445;DHT22;10883;51.946;20.140;2023-03-23T11:52:33;22.80;75.90
21445;DHT22;10883;51.946;20.140;2023-03-23T11:55:14;22.60;74.10
21445;DHT22;10883;51.946;20.140;2023-03-23T11:57:42;21.90;74.40
21445;DHT22;10883;51.946;20.140;2023-03-23T12:00:19;21.40;77.30
21445;DHT22;10883;51.946;20.140;2023-03-23T12:03:07;21.00;80.00
21445;DHT22;10883;51.946;20.140;2023-03-23T12:05:43;21.10;79.80
21445;DHT22;10883;51.946;20.140;2023-03-23T12:08:30;22.10;77.20
21445;DHT22;10883;51.946;20.140;2023-03-23T12:19:37;25.70;66.20
21445;DHT22;10883;51.946;20.140;2023-03-23T12:25:12;24.10;70.10
21445;DHT22;10883;51.946;20.140;2023-03-23T12:30:23;23.60;71.90
21445;DHT22;10883;51.946;20.140;2023-03-23T12:38:46;22.80;73.50
21445;DHT22;10883;51.946;20.140;2023-03-23T12:44:08;21.40;78.20
21445;DHT22;10883;51.946;20.140;2023-03-23T12:49:56;20.20;81.40
21445;DHT22;10883;51.946;20.140;2023-03-23T12:52:26;19.90;81.50
21445;DHT22;10883;51.946;20.140;2023-03-23T12:58:20;19.50;84.40
21445;DHT22;10883;51.946;20.140;2023-03-23T13:00:28;19.20;84.50
21445;DHT22;10883;51.946;20.140;2023-03-23T13:03:05;19.10;85.60
21445;DHT22;10883;51.946;20.140;2023-03-23T13:05:44;19.00;85.50
21445;DHT22;10883;51.946;20.140;2023-03-23T13:08:19;18.90;86.80
21445;DHT22;10883;51.946;20.140;2023-03-23T13:10:48;19.10;85.10
21445;DHT22;10883;51.946;20.140;2023-03-23T13:13:20;19.30;85.50
21445;DHT22;10883;51.946;20.140;2023-03-23T13:16:12;19.30;85.20
21445;DHT22;10883;51.946;20.140;2023-03-23T13:24:17;19.50;87.70
21445;DHT22;10883;51.946;20.140;2023-03-23T13:26:44;19.60;87.80
21445;DHT22;10883;51.946;20.140;2023-03-23T13:29:17;19.40;88.40
21445;DHT22;10883;51.946;20.140;2023-03-23T13:31:50;19.50;89.20
21445;DHT22;10883;51.946;20.140;2023-03-23T13:34:39;19.30;88.40
21445;DHT22;10883;51.946;20.140;2023-03-23T13:37:10;19.10;88.80
21445;DHT22;10883;51.946;20.140;2023-03-23T13:39:50;18.90;89.30
21445;DHT22;10883;51.946;20.140;2023-03-23T13:42:21;18.70;90.00
21445;DHT22;10883;51.946;20.140;2023-03-23T13:49:54;18.40;90.50
21445;DHT22;10883;51.946;20.140;2023-03-23T14:11:09;18.20;91.20
21445;DHT22;10883;51.946;20.140;2023-03-23T14:13:57;18.00;91.70
21445;DHT22;10883;51.946;20.140;2023-03-23T14:16:27;17.90;91.80
21445;DHT22;10883;51.946;20.140;2023-03-23T14:18:59;17.80;92.20
21445;DHT22;10883;51.946;20.140;2023-03-23T14:21:38;17.80;92.50
21445;DHT22;10883;51.946;20.140;2023-03-23T14:24:27;17.70;92.60
21445;DHT22;10883;51.946;20.140;2023-03-23T14:27:07;17.60;93.00
21445;DHT22;10883;51.946;20.140;2023-03-23T14:29:37;17.70;93.30
21445;DHT22;10883;51.946;20.140;2023-03-23T14:32:07;17.60;93.30
21445;DHT22;10883;51.946;20.140;2023-03-23T14:34:36;17.70;93.40
21445;DHT22;10883;51.946;20.140;2023-03-23T14:37:02;17.70;93.60
21445;DHT22;10883;51.946;20.140;2023-03-23T14:39:34;17.70;93.80
21445;DHT22;10883;51.946;20.140;2023-03-23T14:42:12;17.60;94.30
21445;DHT22;10883;51.946;20.140;2023-03-23T14:44:44;17.50;94.90
21445;DHT22;10883;51.946;20.140;2023-03-23T14:47:23;17.60;94.30
21445;DHT22;10883;51.946;20.140;2023-03-23T14:50:02;17.60;94.10
21445;DHT22;10883;51.946;20.140;2023-03-23T14:52:35;17.60;94.20
21445;DHT22;10883;51.946;20.140;2023-03-23T14:55:17;17.60;94.40
21445;DHT22;10883;51.946;20.140;2023-03-23T14:57:45;17.60;94.30
21445;DHT22;10883;51.946;20.140;2023-03-23T15:00:25;17.60;93.90
21445;DHT22;10883;51.946;20.140;2023-03-23T15:02:56;17.60;94.00
21445;DHT22;10883;51.946;20.140;2023-03-23T15:05:31;17.60;94.10
21445;DHT22;10883;51.946;20.140;2023-03-23T15:08:05;17.60;94.60
21445;DHT22;10883;51.946;20.140;2023-03-23T15:10:32;17.50;94.60
21445;DHT22;10883;51.946;20.140;2023-03-23T15:12:58;17.50;94.60
21445;DHT22;10883;51.946;20.140;2023-03-23T15:15:30;17.50;94.50
21445;DHT22;10883;51.946;20.140;2023-03-23T15:17:58;17.40;94.90
21445;DHT22;10883;51.946;20.140;2023-03-23T15:22:55;17.40;94.80
21445;DHT22;10883;51.946;20.140;2023-03-23T15:25:33;17.30;94.70
21445;DHT22;10883;51.946;20.140;2023-03-23T15:28:19;17.20;95.20
21445;DHT22;10883;51.946;20.140;2023-03-23T15:30:52;17.20;95.50
21445;DHT22;10883;51.946;20.140;2023-03-23T15:33:19;17.20;95.40
21445;DHT22;10883;51.946;20.140;2023-03-23T15:35:54;17.20;95.60
21445;DHT22;10883;51.946;20.140;2023-03-23T15:40:55;17.10;96.10
21445;DHT22;10883;51.946;20.140;2023-03-23T15:43:26;17.20;96.30
21445;DHT22;10883;51.946;20.140;2023-03-23T15:46:01;17.10;96.30
21445;DHT22;10883;51.946;20.140;2023-03-23T15:48:52;17.10;96.60
21445;DHT22;10883;51.946;20.140;2023-03-23T15:51:24;17.10;97.00
21445;DHT22;10883;51.946;20.140;2023-03-23T15:53:51;17.00;97.00
21445;DHT22;10883;51.946;20.140;2023-03-23T15:56:17;16.90;97.30
21445;DHT22;10883;51.946;20.140;2023-03-23T15:58:44;16.80;97.90
21445;DHT22;10883;51.946;20.140;2023-03-23T16:01:24;16.70;98.40
21445;DHT22;10883;51.946;20.140;2023-03-23T16:03:58;16.70;98.60
21445;DHT22;10883;51.946;20.140;2023-03-23T16:06:25;16.60;99.00
21445;DHT22;10883;51.946;20.140;2023-03-23T16:08:53;16.50;99.90
21445;DHT22;10883;51.946;20.140;2023-03-23T16:11:18;16.40;99.90
21445;DHT22;10883;51.946;20.140;2023-03-23T16:13:46;16.30;99.90
21445;DHT22;10883;51.946;20.140;2023-03-23T16:16:20;16.30;99.90
21445;DHT22;10883;51.946;20.140;2023-03-23T16:18:46;16.30;99.90
21445;DHT22;10883;51.946;20.140;2023-03-23T16:21:13;16.30;99.90
21445;DHT22;10883;51.946;20.140;2023-03-23T16:23:39;16.30;99.90
21445;DHT22;10883;51.946;20.140;2023-03-23T16:26:09;16.20;99.90
21445;DHT22;10883;51.946;20.140;2023-03-23T16:28:35;16.20;99.90
21445;DHT22;10883;51.946;20.140;2023-03-23T16:31:01;16.20;99.90
21445;DHT22;10883;51.946;20.140;2023-03-23T16:33:27;16.20;99.90
21445;DHT22;10883;51.946;20.140;2023-03-23T16:35:53;16.10;99.90
21445;DHT22;10883;51.946;20.140;2023-03-23T16:38:18;16.00;99.90
21445;DHT22;10883;51.946;20.140;2023-03-23T16:40:45;16.00;99.90
21445;DHT22;10883;51.946;20.140;2023-03-23T16:43:11;15.90;99.90
21445;DHT22;10883;51.946;20.140;2023-03-23T16:45:39;15.80;99.90
21445;DHT22;10883;51.946;20.140;2023-03-23T16:48:06;15.70;99.90
21445;DHT22;10883;51.946;20.140;2023-03-23T16:50:33;15.60;99.90
21445;DHT22;10883;51.946;20.140;2023-03-23T16:53:00;15.60;99.90
21445;DHT22;10883;51.946;20.140;2023-03-23T16:55:26;15.60;99.90
21445;DHT22;10883;51.946;20.140;2023-03-23T16:57:53;15.50;99.90
21445;DHT22;10883;51.946;20.140;2023-03-23T17:00:19;15.40;99.90
21445;DHT22;10883;51.946;20.140;2023-03-23T17:02:47;15.30;99.90
21445;DHT22;10883;51.946;20.140;2023-03-23T17:05:13;15.30;99.90
21445;DHT22;10883;51.946;20.140;2023-03-23T17:07:41;15.20;99.90
21445;DHT22;10883;51.946;20.140;2023-03-23T17:10:08;15.20;99.90
21445;DHT22;10883;51.946;20.140;2023-03-23T17:12:34;15.10;99.90
21445;DHT22;10883;51.946;20.140;2023-03-23T17:15:00;15.00;99.90
21445;DHT22;10883;51.946;20.140;2023-03-23T17:17:27;15.00;99.90
21445;DHT22;10883;51.946;20.140;2023-03-23T17:19:52;15.10;99.90
21445;DHT22;10883;51.946;20.140;2023-03-23T17:22:18;15.10;99.90
21445;DHT22;10883;51.946;20.140;2023-03-23T17:24:44;15.00;99.90
21445;DHT22;10883;51.946;20.140;2023-03-23T17:27:16;15.10;99.90
21445;DHT22;10883;51.946;20.140;2023-03-23T17:29:42;15.10;99.90